sensor_id;sensor_type;location;lat;lon;timestamp;P1;durP1;ratioP1;P2;durP2;ratioP2
13185;SDS011;6658;53.080;7.428;2024-02-15T00:02:14;11.23;;;10.13;;
13185;SDS011;6658;53.080;7.428;2024-02-15T00:04:40;10.07;;;9.17;;
13185;SDS011;6658;53.080;7.428;2024-02-15T00:07:08;11.23;;;10.13;;
13185;SDS011;6658;53.080;7.428;2024-02-15T00:09:34;10.13;;;9.10;;
13185;SDS011;6658;53.080;7.428;2024-02-15T00:12:00;9.87;;;8.87;;
13185;SDS011;6658;53.080;7.428;2024-02-15T00:14:26;10.20;;;9.10;;
13185;SDS011;6658;53.080;7.428;2024-02-15T00:16:53;10.43;;;9.43;;
13185;SDS011;6658;53.080;7.428;2024-02-15T00:19:20;10.83;;;9.60;;
13185;SDS011;6658;53.080;7.428;2024-02-15T00:21:46;13.80;;;9.57;;
13185;SDS011;6658;53.080;7.428;2024-02-15T00:24:13;10.60;;;9.40;;
13185;SDS011;6658;53.080;7.428;2024-02-15T00:26:39;9.80;;;8.80;;
13185;SDS011;6658;53.080;7.428;2024-02-15T00:29:07;12.97;;;10.37;;
13185;SDS011;6658;53.080;7.428;2024-02-15T00:31:34;12.43;;;9.67;;
13185;SDS011;6658;53.080;7.428;2024-02-15T00:34:00;11.37;;;10.27;;
13185;SDS011;6658;53.080;7.428;2024-02-15T00:36:28;11.67;;;10.47;;
13185;SDS011;6658;53.080;7.428;2024-02-15T00:38:54;11.83;;;10.63;;
13185;SDS011;6658;53.080;7.428;2024-02-15T00:41:20;13.87;;;10.73;;
13185;SDS011;6658;53.080;7.428;2024-02-15T00:43:46;12.63;;;9.77;;
13185;SDS011;6658;53.080;7.428;2024-02-15T00:46:13;12.23;;;10.27;;
13185;SDS011;6658;53.080;7.428;2024-02-15T00:48:39;12.60;;;10.73;;
13185;SDS011;6658;53.080;7.428;2024-02-15T00:51:06;10.90;;;9.73;;
13185;SDS011;6658;53.080;7.428;2024-02-15T00:53:31;11.23;;;10.10;;
13185;SDS011;6658;53.080;7.428;2024-02-15T00:55:57;13.83;;;11.37;;
13185;SDS011;6658;53.080;7.428;2024-02-15T00:58:23;12.20;;;10.77;;
13185;SDS011;6658;53.080;7.428;2024-02-15T01:00:50;11.47;;;9.93;;
13185;SDS011;6658;53.080;7.428;2024-02-15T01:03:15;12.60;;;10.70;;
13185;SDS011;6658;53.080;7.428;2024-02-15T01:05:41;12.50;;;10.20;;
13185;SDS011;6658;53.080;7.428;2024-02-15T01:08:07;14.30;;;11.53;;
13185;SDS011;6658;53.080;7.428;2024-02-15T01:10:34;12.57;;;11.27;;
13185;SDS011;6658;53.080;7.428;2024-02-15T01:13:00;11.80;;;10.37;;
13185;SDS011;6658;53.080;7.428;2024-02-15T01:15:25;13.57;;;11.43;;
13185;SDS011;6658;53.080;7.428;2024-02-15T01:17:51;12.63;;;11.00;;
13185;SDS011;6658;53.080;7.428;2024-02-15T01:20:17;11.17;;;10.00;;
13185;SDS011;6658;53.080;7.428;2024-02-15T01:22:42;13.13;;;11.73;;
13185;SDS011;6658;53.080;7.428;2024-02-15T01:25:09;11.90;;;10.63;;
13185;SDS011;6658;53.080;7.428;2024-02-15T01:27:36;12.50;;;11.20;;
13185;SDS011;6658;53.080;7.428;2024-02-15T01:30:02;12.97;;;11.20;;
13185;SDS011;6658;53.080;7.428;2024-02-15T01:32:29;14.93;;;11.43;;
13185;SDS011;6658;53.080;7.428;2024-02-15T01:34:55;14.70;;;11.87;;
13185;SDS011;6658;53.080;7.428;2024-02-15T01:37:21;15.30;;;12.07;;
13185;SDS011;6658;53.080;7.428;2024-02-15T01:39:47;12.53;;;10.80;;
13185;SDS011;6658;53.080;7.428;2024-02-15T01:42:14;14.30;;;12.80;;
13185;SDS011;6658;53.080;7.428;2024-02-15T01:44:40;13.57;;;11.67;;
13185;SDS011;6658;53.080;7.428;2024-02-15T01:47:06;12.23;;;11.03;;
13185;SDS011;6658;53.080;7.428;2024-02-15T01:49:33;14.23;;;11.20;;
13185;SDS011;6658;53.080;7.428;2024-02-15T01:51:59;11.70;;;10.50;;
13185;SDS011;6658;53.080;7.428;2024-02-15T01:54:27;12.00;;;10.60;;
13185;SDS011;6658;53.080;7.428;2024-02-15T01:56:53;11.23;;;9.20;;
13185;SDS011;6658;53.080;7.428;2024-02-15T01:59:21;12.10;;;10.07;;
13185;SDS011;6658;53.080;7.428;2024-02-15T02:12:16;11.67;;;9.13;;
13185;SDS011;6658;53.080;7.428;2024-02-15T02:14:43;10.03;;;8.83;;
13185;SDS011;6658;53.080;7.428;2024-02-15T02:17:14;9.70;;;8.80;;
13185;SDS011;6658;53.080;7.428;2024-02-15T02:19:41;10.27;;;8.10;;
13185;SDS011;6658;53.080;7.428;2024-02-15T02:22:10;9.37;;;8.40;;
13185;SDS011;6658;53.080;7.428;2024-02-15T02:24:40;9.63;;;8.53;;
13185;SDS011;6658;53.080;7.428;2024-02-15T02:27:13;9.77;;;8.83;;
13185;SDS011;6658;53.080;7.428;2024-02-15T02:29:43;8.93;;;8.03;;
13185;SDS011;6658;53.080;7.428;2024-02-15T02:32:11;11.20;;;8.70;;
13185;SDS011;6658;53.080;7.428;2024-02-15T02:34:37;11.07;;;8.63;;
13185;SDS011;6658;53.080;7.428;2024-02-15T02:37:06;9.67;;;8.13;;
13185;SDS011;6658;53.080;7.428;2024-02-15T02:39:33;8.47;;;7.67;;
13185;SDS011;6658;53.080;7.428;2024-02-15T02:41:59;10.83;;;8.83;;
13185;SDS011;6658;53.080;7.428;2024-02-15T02:44:25;9.60;;;8.60;;
13185;SDS011;6658;53.080;7.428;2024-02-15T02:46:50;10.13;;;8.63;;
13185;SDS011;6658;53.080;7.428;2024-02-15T02:49:16;10.77;;;8.93;;
13185;SDS011;6658;53.080;7.428;2024-02-15T02:51:42;9.13;;;8.23;;
13185;SDS011;6658;53.080;7.428;2024-02-15T02:54:08;10.67;;;8.30;;
13185;SDS011;6658;53.080;7.428;2024-02-15T02:56:33;9.40;;;8.40;;
13185;SDS011;6658;53.080;7.428;2024-02-15T02:58:59;12.10;;;9.40;;
13185;SDS011;6658;53.080;7.428;2024-02-15T03:01:25;9.77;;;8.77;;
13185;SDS011;6658;53.080;7.428;2024-02-15T03:03:51;11.00;;;9.17;;
13185;SDS011;6658;53.080;7.428;2024-02-15T03:06:20;9.63;;;8.57;;
13185;SDS011;6658;53.080;7.428;2024-02-15T03:08:46;12.50;;;9.60;;
13185;SDS011;6658;53.080;7.428;2024-02-15T03:11:12;10.93;;;8.87;;
13185;SDS011;6658;53.080;7.428;2024-02-15T03:13:39;9.67;;;8.67;;
13185;SDS011;6658;53.080;7.428;2024-02-15T03:16:05;10.60;;;9.50;;
13185;SDS011;6658;53.080;7.428;2024-02-15T03:18:31;9.90;;;8.93;;
13185;SDS011;6658;53.080;7.428;2024-02-15T03:21:00;11.73;;;8.97;;
13185;SDS011;6658;53.080;7.428;2024-02-15T03:23:26;10.07;;;8.43;;
13185;SDS011;6658;53.080;7.428;2024-02-15T03:25:52;10.30;;;8.73;;
13185;SDS011;6658;53.080;7.428;2024-02-15T03:28:18;10.47;;;8.50;;
13185;SDS011;6658;53.080;7.428;2024-02-15T03:30:49;10.73;;;8.07;;
13185;SDS011;6658;53.080;7.428;2024-02-15T03:33:15;12.37;;;8.43;;
13185;SDS011;6658;53.080;7.428;2024-02-15T03:35:41;10.13;;;8.43;;
13185;SDS011;6658;53.080;7.428;2024-02-15T03:38:07;9.23;;;7.67;;
13185;SDS011;6658;53.080;7.428;2024-02-15T03:40:32;11.80;;;8.73;;
13185;SDS011;6658;53.080;7.428;2024-02-15T03:42:58;9.60;;;8.67;;
13185;SDS011;6658;53.080;7.428;2024-02-15T03:45:24;10.57;;;7.93;;
13185;SDS011;6658;53.080;7.428;2024-02-15T03:47:53;9.57;;;7.93;;
13185;SDS011;6658;53.080;7.428;2024-02-15T03:50:20;8.27;;;7.27;;
13185;SDS011;6658;53.080;7.428;2024-02-15T03:52:49;13.60;;;9.60;;
13185;SDS011;6658;53.080;7.428;2024-02-15T03:55:15;11.13;;;8.23;;
13185;SDS011;6658;53.080;7.428;2024-02-15T03:57:41;10.57;;;9.00;;
13185;SDS011;6658;53.080;7.428;2024-02-15T04:00:11;12.73;;;9.13;;
13185;SDS011;6658;53.080;7.428;2024-02-15T04:02:39;11.23;;;8.80;;
13185;SDS011;6658;53.080;7.428;2024-02-15T04:05:09;10.97;;;8.67;;
13185;SDS011;6658;53.080;7.428;2024-02-15T04:07:37;11.77;;;9.03;;
13185;SDS011;6658;53.080;7.428;2024-02-15T04:10:03;12.63;;;8.53;;
13185;SDS011;6658;53.080;7.428;2024-02-15T04:12:30;11.50;;;8.33;;
13185;SDS011;6658;53.080;7.428;2024-02-15T04:14:56;10.83;;;8.50;;
13185;SDS011;6658;53.080;7.428;2024-02-15T04:17:29;12.30;;;8.60;;
13185;SDS011;6658;53.080;7.428;2024-02-15T04:19:57;12.60;;;8.93;;
13185;SDS011;6658;53.080;7.428;2024-02-15T04:22:23;9.53;;;8.40;;
13185;SDS011;6658;53.080;7.428;2024-02-15T04:24:49;12.20;;;9.13;;
13185;SDS011;6658;53.080;7.428;2024-02-15T04:27:15;10.70;;;9.43;;
13185;SDS011;6658;53.080;7.428;2024-02-15T04:29:41;9.33;;;8.33;;
13185;SDS011;6658;53.080;7.428;2024-02-15T04:32:09;13.07;;;10.37;;
13185;SDS011;6658;53.080;7.428;2024-02-15T04:34:38;12.20;;;10.93;;
13185;SDS011;6658;53.080;7.428;2024-02-15T04:37:05;12.80;;;10.43;;
13185;SDS011;6658;53.080;7.428;2024-02-15T04:39:34;14.17;;;11.80;;
13185;SDS011;6658;53.080;7.428;2024-02-15T04:42:03;15.30;;;11.57;;
13185;SDS011;6658;53.080;7.428;2024-02-15T04:44:31;13.20;;;11.80;;
13185;SDS011;6658;53.080;7.428;2024-02-15T04:47:00;16.30;;;12.33;;
13185;SDS011;6658;53.080;7.428;2024-02-15T04:49:28;13.07;;;11.27;;
13185;SDS011;6658;53.080;7.428;2024-02-15T04:51:54;20.30;;;15.40;;
13185;SDS011;6658;53.080;7.428;2024-02-15T04:54:22;14.60;;;12.13;;
13185;SDS011;6658;53.080;7.428;2024-02-15T04:56:48;13.40;;;11.87;;
13185;SDS011;6658;53.080;7.428;2024-02-15T04:59:17;13.97;;;12.37;;
13185;SDS011;6658;53.080;7.428;2024-02-15T05:01:44;16.30;;;13.03;;
13185;SDS011;6658;53.080;7.428;2024-02-15T05:04:10;14.57;;;13.17;;
13185;SDS011;6658;53.080;7.428;2024-02-15T05:06:37;15.87;;;13.60;;
13185;SDS011;6658;53.080;7.428;2024-02-15T05:09:03;16.23;;;12.33;;
13185;SDS011;6658;53.080;7.428;2024-02-15T05:11:41;14.80;;;13.43;;
13185;SDS011;6658;53.080;7.428;2024-02-15T05:14:11;15.30;;;12.77;;
13185;SDS011;6658;53.080;7.428;2024-02-15T05:16:37;13.83;;;12.53;;
13185;SDS011;6658;53.080;7.428;2024-02-15T05:19:11;14.90;;;13.33;;
13185;SDS011;6658;53.080;7.428;2024-02-15T05:21:37;14.70;;;13.27;;
13185;SDS011;6658;53.080;7.428;2024-02-15T05:24:03;14.07;;;12.70;;
13185;SDS011;6658;53.080;7.428;2024-02-15T05:26:30;15.80;;;13.53;;
13185;SDS011;6658;53.080;7.428;2024-02-15T05:28:55;14.70;;;12.73;;
13185;SDS011;6658;53.080;7.428;2024-02-15T05:31:21;13.57;;;12.13;;
13185;SDS011;6658;53.080;7.428;2024-02-15T05:33:50;14.53;;;13.13;;
13185;SDS011;6658;53.080;7.428;2024-02-15T05:36:17;14.50;;;12.97;;
13185;SDS011;6658;53.080;7.428;2024-02-15T05:38:50;14.27;;;12.77;;
13185;SDS011;6658;53.080;7.428;2024-02-15T05:41:17;14.23;;;12.70;;
13185;SDS011;6658;53.080;7.428;2024-02-15T05:43:44;14.83;;;13.27;;
13185;SDS011;6658;53.080;7.428;2024-02-15T05:46:11;15.20;;;12.70;;
13185;SDS011;6658;53.080;7.428;2024-02-15T05:48:38;14.17;;;12.67;;
13185;SDS011;6658;53.080;7.428;2024-02-15T05:51:04;14.07;;;12.67;;
13185;SDS011;6658;53.080;7.428;2024-02-15T05:53:30;13.97;;;12.63;;
13185;SDS011;6658;53.080;7.428;2024-02-15T05:56:01;14.43;;;12.37;;
13185;SDS011;6658;53.080;7.428;2024-02-15T05:58:31;14.47;;;12.97;;
13185;SDS011;6658;53.080;7.428;2024-02-15T06:00:58;15.07;;;13.63;;
13185;SDS011;6658;53.080;7.428;2024-02-15T06:03:30;15.27;;;13.67;;
13185;SDS011;6658;53.080;7.428;2024-02-15T06:05:58;18.23;;;13.23;;
13185;SDS011;6658;53.080;7.428;2024-02-15T06:08:27;15.40;;;13.87;;
13185;SDS011;6658;53.080;7.428;2024-02-15T06:10:54;15.63;;;13.93;;
13185;SDS011;6658;53.080;7.428;2024-02-15T06:13:21;16.57;;;14.50;;
13185;SDS011;6658;53.080;7.428;2024-02-15T06:15:48;17.17;;;14.83;;
13185;SDS011;6658;53.080;7.428;2024-02-15T06:18:21;16.13;;;14.47;;
13185;SDS011;6658;53.080;7.428;2024-02-15T06:20:53;17.53;;;14.80;;
13185;SDS011;6658;53.080;7.428;2024-02-15T06:23:22;16.57;;;14.87;;
13185;SDS011;6658;53.080;7.428;2024-02-15T06:25:50;17.17;;;15.10;;
13185;SDS011;6658;53.080;7.428;2024-02-15T06:28:23;16.90;;;15.33;;
13185;SDS011;6658;53.080;7.428;2024-02-15T06:31:08;16.37;;;14.83;;
13185;SDS011;6658;53.080;7.428;2024-02-15T06:33:53;16.47;;;14.77;;
13185;SDS011;6658;53.080;7.428;2024-02-15T06:36:45;16.00;;;14.50;;
13185;SDS011;6658;53.080;7.428;2024-02-15T06:39:31;15.93;;;14.40;;
13185;SDS011;6658;53.080;7.428;2024-02-15T06:42:06;16.23;;;14.53;;
13185;SDS011;6658;53.080;7.428;2024-02-15T06:44:46;16.47;;;14.60;;
13185;SDS011;6658;53.080;7.428;2024-02-15T06:47:13;16.33;;;14.90;;
13185;SDS011;6658;53.080;7.428;2024-02-15T06:49:42;16.20;;;14.70;;
13185;SDS011;6658;53.080;7.428;2024-02-15T06:52:09;16.37;;;14.83;;
13185;SDS011;6658;53.080;7.428;2024-02-15T06:54:39;15.60;;;14.13;;
13185;SDS011;6658;53.080;7.428;2024-02-15T06:57:10;15.73;;;14.03;;
13185;SDS011;6658;53.080;7.428;2024-02-15T06:59:35;15.17;;;13.57;;
13185;SDS011;6658;53.080;7.428;2024-02-15T07:02:03;15.20;;;13.70;;
13185;SDS011;6658;53.080;7.428;2024-02-15T07:04:30;15.23;;;13.83;;
13185;SDS011;6658;53.080;7.428;2024-02-15T07:06:59;16.00;;;14.37;;
13185;SDS011;6658;53.080;7.428;2024-02-15T07:09:25;15.00;;;13.70;;
13185;SDS011;6658;53.080;7.428;2024-02-15T07:11:51;16.33;;;14.57;;
13185;SDS011;6658;53.080;7.428;2024-02-15T07:14:17;15.27;;;13.87;;
13185;SDS011;6658;53.080;7.428;2024-02-15T07:16:48;13.87;;;12.57;;
13185;SDS011;6658;53.080;7.428;2024-02-15T07:19:15;14.27;;;12.87;;
13185;SDS011;6658;53.080;7.428;2024-02-15T07:21:42;15.30;;;13.90;;
13185;SDS011;6658;53.080;7.428;2024-02-15T07:24:13;15.27;;;13.77;;
13185;SDS011;6658;53.080;7.428;2024-02-15T07:26:39;13.83;;;12.60;;
13185;SDS011;6658;53.080;7.428;2024-02-15T07:29:05;14.13;;;12.73;;
13185;SDS011;6658;53.080;7.428;2024-02-15T07:31:31;13.93;;;12.53;;
13185;SDS011;6658;53.080;7.428;2024-02-15T07:33:58;13.30;;;11.97;;
13185;SDS011;6658;53.080;7.428;2024-02-15T07:36:24;13.70;;;11.80;;
13185;SDS011;6658;53.080;7.428;2024-02-15T07:38:51;13.93;;;11.90;;
13185;SDS011;6658;53.080;7.428;2024-02-15T07:41:18;13.07;;;11.70;;
13185;SDS011;6658;53.080;7.428;2024-02-15T07:43:49;13.33;;;11.07;;
13185;SDS011;6658;53.080;7.428;2024-02-15T07:46:15;12.90;;;11.60;;
13185;SDS011;6658;53.080;7.428;2024-02-15T07:48:44;11.77;;;10.77;;
13185;SDS011;6658;53.080;7.428;2024-02-15T07:51:18;13.13;;;11.43;;
13185;SDS011;6658;53.080;7.428;2024-02-15T07:53:48;12.33;;;11.23;;
13185;SDS011;6658;53.080;7.428;2024-02-15T07:56:17;12.50;;;11.23;;
13185;SDS011;6658;53.080;7.428;2024-02-15T07:58:44;12.47;;;11.20;;
13185;SDS011;6658;53.080;7.428;2024-02-15T08:01:13;12.53;;;11.40;;
13185;SDS011;6658;53.080;7.428;2024-02-15T08:03:42;11.67;;;10.57;;
13185;SDS011;6658;53.080;7.428;2024-02-15T08:06:11;11.87;;;10.63;;
13185;SDS011;6658;53.080;7.428;2024-02-15T08:08:41;11.53;;;10.33;;
13185;SDS011;6658;53.080;7.428;2024-02-15T08:11:10;12.87;;;11.33;;
13185;SDS011;6658;53.080;7.428;2024-02-15T08:13:49;12.97;;;10.93;;
13185;SDS011;6658;53.080;7.428;2024-02-15T08:16:19;12.23;;;10.90;;
13185;SDS011;6658;53.080;7.428;2024-02-15T08:18:48;10.70;;;9.63;;
13185;SDS011;6658;53.080;7.428;2024-02-15T08:21:17;10.73;;;9.63;;
13185;SDS011;6658;53.080;7.428;2024-02-15T08:23:42;10.77;;;9.33;;
13185;SDS011;6658;53.080;7.428;2024-02-15T08:26:10;11.73;;;9.90;;
13185;SDS011;6658;53.080;7.428;2024-02-15T08:28:45;11.30;;;10.10;;
13185;SDS011;6658;53.080;7.428;2024-02-15T08:31:11;10.67;;;9.63;;
13185;SDS011;6658;53.080;7.428;2024-02-15T08:33:40;10.10;;;9.17;;
13185;SDS011;6658;53.080;7.428;2024-02-15T08:36:09;10.43;;;9.43;;
13185;SDS011;6658;53.080;7.428;2024-02-15T08:38:36;10.33;;;8.77;;
13185;SDS011;6658;53.080;7.428;2024-02-15T08:41:05;10.70;;;9.50;;
13185;SDS011;6658;53.080;7.428;2024-02-15T08:43:32;11.40;;;8.87;;
13185;SDS011;6658;53.080;7.428;2024-02-15T08:45:57;9.90;;;8.90;;
13185;SDS011;6658;53.080;7.428;2024-02-15T08:48:23;10.20;;;9.20;;
13185;SDS011;6658;53.080;7.428;2024-02-15T08:50:49;9.13;;;8.20;;
13185;SDS011;6658;53.080;7.428;2024-02-15T08:53:16;8.87;;;8.07;;
13185;SDS011;6658;53.080;7.428;2024-02-15T08:55:44;9.63;;;8.83;;
13185;SDS011;6658;53.080;7.428;2024-02-15T08:58:10;9.27;;;8.47;;
13185;SDS011;6658;53.080;7.428;2024-02-15T09:00:36;9.83;;;8.83;;
13185;SDS011;6658;53.080;7.428;2024-02-15T09:03:06;8.60;;;7.80;;
13185;SDS011;6658;53.080;7.428;2024-02-15T09:05:32;9.43;;;8.40;;
13185;SDS011;6658;53.080;7.428;2024-02-15T09:07:57;8.37;;;7.67;;
13185;SDS011;6658;53.080;7.428;2024-02-15T09:10:23;9.67;;;8.23;;
13185;SDS011;6658;53.080;7.428;2024-02-15T09:12:49;7.97;;;7.23;;
13185;SDS011;6658;53.080;7.428;2024-02-15T09:15:15;8.50;;;7.67;;
13185;SDS011;6658;53.080;7.428;2024-02-15T09:17:41;8.23;;;7.03;;
13185;SDS011;6658;53.080;7.428;2024-02-15T09:20:10;8.90;;;6.70;;
13185;SDS011;6658;53.080;7.428;2024-02-15T09:22:49;8.80;;;7.30;;
13185;SDS011;6658;53.080;7.428;2024-02-15T09:25:16;7.37;;;6.53;;
13185;SDS011;6658;53.080;7.428;2024-02-15T09:27:43;6.80;;;6.20;;
13185;SDS011;6658;53.080;7.428;2024-02-15T09:30:09;7.40;;;6.70;;
13185;SDS011;6658;53.080;7.428;2024-02-15T09:32:37;9.87;;;7.80;;
13185;SDS011;6658;53.080;7.428;2024-02-15T09:35:03;12.40;;;9.93;;
13185;SDS011;6658;53.080;7.428;2024-02-15T09:37:36;9.90;;;8.43;;
13185;SDS011;6658;53.080;7.428;2024-02-15T09:40:11;8.13;;;7.03;;
13185;SDS011;6658;53.080;7.428;2024-02-15T09:42:38;8.40;;;6.53;;
13185;SDS011;6658;53.080;7.428;2024-02-15T09:45:05;6.73;;;6.13;;
13185;SDS011;6658;53.080;7.428;2024-02-15T09:47:35;6.60;;;5.90;;
13185;SDS011;6658;53.080;7.428;2024-02-15T09:50:04;7.73;;;6.50;;
13185;SDS011;6658;53.080;7.428;2024-02-15T09:52:36;6.97;;;6.37;;
13185;SDS011;6658;53.080;7.428;2024-02-15T09:55:05;6.97;;;6.37;;
13185;SDS011;6658;53.080;7.428;2024-02-15T09:57:38;7.60;;;6.20;;
13185;SDS011;6658;53.080;7.428;2024-02-15T10:00:10;6.80;;;6.10;;
13185;SDS011;6658;53.080;7.428;2024-02-15T10:02:38;6.80;;;6.23;;
13185;SDS011;6658;53.080;7.428;2024-02-15T10:05:05;6.33;;;5.73;;
13185;SDS011;6658;53.080;7.428;2024-02-15T10:07:37;7.90;;;5.80;;
13185;SDS011;6658;53.080;7.428;2024-02-15T10:10:19;5.90;;;5.40;;
13185;SDS011;6658;53.080;7.428;2024-02-15T10:12:49;7.57;;;6.07;;
13185;SDS011;6658;53.080;7.428;2024-02-15T10:15:33;7.10;;;6.40;;
13185;SDS011;6658;53.080;7.428;2024-02-15T10:18:07;6.57;;;6.00;;
13185;SDS011;6658;53.080;7.428;2024-02-15T10:20:35;7.13;;;6.07;;
13185;SDS011;6658;53.080;7.428;2024-02-15T10:25:36;6.50;;;5.77;;
13185;SDS011;6658;53.080;7.428;2024-02-15T10:28:10;6.30;;;5.80;;
13185;SDS011;6658;53.080;7.428;2024-02-15T10:30:38;6.47;;;5.80;;
13185;SDS011;6658;53.080;7.428;2024-02-15T10:33:05;6.40;;;5.80;;
13185;SDS011;6658;53.080;7.428;2024-02-15T10:35:35;5.80;;;5.30;;
13185;SDS011;6658;53.080;7.428;2024-02-15T10:38:11;5.40;;;4.90;;
13185;SDS011;6658;53.080;7.428;2024-02-15T10:40:38;5.37;;;4.93;;
13185;SDS011;6658;53.080;7.428;2024-02-15T10:43:08;4.80;;;4.40;;
13185;SDS011;6658;53.080;7.428;2024-02-15T10:45:36;5.10;;;4.60;;
13185;SDS011;6658;53.080;7.428;2024-02-15T10:48:03;5.03;;;4.63;;
13185;SDS011;6658;53.080;7.428;2024-02-15T10:50:33;5.00;;;4.60;;
13185;SDS011;6658;53.080;7.428;2024-02-15T10:52:59;4.80;;;4.40;;
13185;SDS011;6658;53.080;7.428;2024-02-15T10:55:32;4.43;;;4.10;;
13185;SDS011;6658;53.080;7.428;2024-02-15T10:58:20;4.70;;;4.30;;
13185;SDS011;6658;53.080;7.428;2024-02-15T11:00:50;3.93;;;3.63;;
13185;SDS011;6658;53.080;7.428;2024-02-15T11:03:25;3.97;;;3.67;;
13185;SDS011;6658;53.080;7.428;2024-02-15T11:05:56;4.70;;;4.30;;
13185;SDS011;6658;53.080;7.428;2024-02-15T11:08:25;4.83;;;4.10;;
13185;SDS011;6658;53.080;7.428;2024-02-15T11:10:52;3.77;;;3.37;;
13185;SDS011;6658;53.080;7.428;2024-02-15T11:13:20;3.90;;;3.60;;
13185;SDS011;6658;53.080;7.428;2024-02-15T11:15:46;3.53;;;3.33;;
13185;SDS011;6658;53.080;7.428;2024-02-15T11:21:10;4.07;;;3.67;;
13185;SDS011;6658;53.080;7.428;2024-02-15T11:23:37;3.87;;;3.57;;
13185;SDS011;6658;53.080;7.428;2024-02-15T11:26:03;3.37;;;3.07;;
13185;SDS011;6658;53.080;7.428;2024-02-15T11:30:56;3.70;;;3.40;;
13185;SDS011;6658;53.080;7.428;2024-02-15T11:33:27;3.20;;;2.90;;
13185;SDS011;6658;53.080;7.428;2024-02-15T11:36:10;2.93;;;2.73;;
13185;SDS011;6658;53.080;7.428;2024-02-15T11:38:37;3.40;;;3.10;;
13185;SDS011;6658;53.080;7.428;2024-02-15T11:41:08;3.10;;;2.90;;
13185;SDS011;6658;53.080;7.428;2024-02-15T11:46:21;3.30;;;3.10;;
13185;SDS011;6658;53.080;7.428;2024-02-15T11:48:53;3.37;;;3.00;;
13185;SDS011;6658;53.080;7.428;2024-02-15T11:51:24;3.70;;;3.27;;
13185;SDS011;6658;53.080;7.428;2024-02-15T11:54:01;3.03;;;2.77;;
13185;SDS011;6658;53.080;7.428;2024-02-15T11:56:52;2.97;;;2.73;;
13185;SDS011;6658;53.080;7.428;2024-02-15T11:59:43;2.83;;;2.63;;
13185;SDS011;6658;53.080;7.428;2024-02-15T12:02:37;2.67;;;2.47;;
13185;SDS011;6658;53.080;7.428;2024-02-15T12:05:22;2.63;;;2.30;;
13185;SDS011;6658;53.080;7.428;2024-02-15T12:08:06;2.33;;;2.13;;
13185;SDS011;6658;53.080;7.428;2024-02-15T12:11:00;2.50;;;2.30;;
13185;SDS011;6658;53.080;7.428;2024-02-15T12:13:51;2.40;;;2.20;;
13185;SDS011;6658;53.080;7.428;2024-02-15T12:16:35;2.07;;;1.97;;
13185;SDS011;6658;53.080;7.428;2024-02-15T12:19:20;2.57;;;2.37;;
13185;SDS011;6658;53.080;7.428;2024-02-15T12:21:46;2.10;;;2.00;;
13185;SDS011;6658;53.080;7.428;2024-02-15T12:24:13;2.40;;;2.20;;
13185;SDS011;6658;53.080;7.428;2024-02-15T12:26:42;2.40;;;2.20;;
13185;SDS011;6658;53.080;7.428;2024-02-15T12:29:08;2.40;;;2.20;;
13185;SDS011;6658;53.080;7.428;2024-02-15T12:31:35;2.13;;;2.03;;
13185;SDS011;6658;53.080;7.428;2024-02-15T12:34:03;2.23;;;2.03;;
13185;SDS011;6658;53.080;7.428;2024-02-15T12:36:33;2.60;;;2.40;;
13185;SDS011;6658;53.080;7.428;2024-02-15T12:39:03;17.47;;;16.03;;
13185;SDS011;6658;53.080;7.428;2024-02-15T12:41:46;5.13;;;4.83;;
13185;SDS011;6658;53.080;7.428;2024-02-15T12:44:17;3.60;;;3.40;;
13185;SDS011;6658;53.080;7.428;2024-02-15T12:46:53;1.77;;;1.67;;
13185;SDS011;6658;53.080;7.428;2024-02-15T12:51:49;2.53;;;2.43;;
13185;SDS011;6658;53.080;7.428;2024-02-15T12:54:20;2.07;;;1.87;;
13185;SDS011;6658;53.080;7.428;2024-02-15T12:56:47;2.17;;;2.07;;
13185;SDS011;6658;53.080;7.428;2024-02-15T12:59:19;2.10;;;2.00;;
13185;SDS011;6658;53.080;7.428;2024-02-15T13:01:45;3.23;;;3.03;;
13185;SDS011;6658;53.080;7.428;2024-02-15T13:04:34;1.83;;;1.73;;
13185;SDS011;6658;53.080;7.428;2024-02-15T13:07:00;2.00;;;1.90;;
13185;SDS011;6658;53.080;7.428;2024-02-15T13:09:38;1.90;;;1.80;;
13185;SDS011;6658;53.080;7.428;2024-02-15T13:12:05;1.87;;;1.77;;
13185;SDS011;6658;53.080;7.428;2024-02-15T13:14:31;1.70;;;1.60;;
13185;SDS011;6658;53.080;7.428;2024-02-15T13:16:59;1.77;;;1.67;;
13185;SDS011;6658;53.080;7.428;2024-02-15T13:19:26;2.10;;;1.90;;
13185;SDS011;6658;53.080;7.428;2024-02-15T13:21:55;1.67;;;1.57;;
13185;SDS011;6658;53.080;7.428;2024-02-15T13:24:22;1.80;;;1.70;;
13185;SDS011;6658;53.080;7.428;2024-02-15T13:26:51;1.70;;;1.60;;
13185;SDS011;6658;53.080;7.428;2024-02-15T13:29:17;6.80;;;6.30;;
13185;SDS011;6658;53.080;7.428;2024-02-15T13:31:42;3.20;;;2.87;;
13185;SDS011;6658;53.080;7.428;2024-02-15T13:34:08;2.30;;;2.20;;
13185;SDS011;6658;53.080;7.428;2024-02-15T13:36:37;1.90;;;1.80;;
13185;SDS011;6658;53.080;7.428;2024-02-15T13:39:03;2.57;;;2.37;;
13185;SDS011;6658;53.080;7.428;2024-02-15T13:41:34;3.97;;;3.67;;
13185;SDS011;6658;53.080;7.428;2024-02-15T13:44:00;6.40;;;5.90;;
13185;SDS011;6658;53.080;7.428;2024-02-15T13:46:29;5.03;;;4.73;;
13185;SDS011;6658;53.080;7.428;2024-02-15T13:48:54;6.43;;;6.00;;
13185;SDS011;6658;53.080;7.428;2024-02-15T13:51:21;2.67;;;2.07;;
13185;SDS011;6658;53.080;7.428;2024-02-15T13:53:46;10.40;;;9.70;;
13185;SDS011;6658;53.080;7.428;2024-02-15T13:56:12;3.73;;;2.70;;
13185;SDS011;6658;53.080;7.428;2024-02-15T13:58:38;2.53;;;2.10;;
13185;SDS011;6658;53.080;7.428;2024-02-15T14:01:04;2.20;;;2.00;;
13185;SDS011;6658;53.080;7.428;2024-02-15T14:03:31;2.40;;;2.27;;
13185;SDS011;6658;53.080;7.428;2024-02-15T14:06:01;3.10;;;2.83;;
13185;SDS011;6658;53.080;7.428;2024-02-15T14:08:27;2.20;;;2.10;;
13185;SDS011;6658;53.080;7.428;2024-02-15T14:10:52;1.90;;;1.80;;
13185;SDS011;6658;53.080;7.428;2024-02-15T14:13:18;2.20;;;2.10;;
13185;SDS011;6658;53.080;7.428;2024-02-15T14:15:46;3.30;;;2.97;;
13185;SDS011;6658;53.080;7.428;2024-02-15T14:18:12;3.03;;;2.70;;
13185;SDS011;6658;53.080;7.428;2024-02-15T14:20:39;6.77;;;6.17;;
13185;SDS011;6658;53.080;7.428;2024-02-15T14:23:07;6.57;;;6.13;;
13185;SDS011;6658;53.080;7.428;2024-02-15T14:25:38;2.90;;;2.70;;
13185;SDS011;6658;53.080;7.428;2024-02-15T14:28:04;2.43;;;2.23;;
13185;SDS011;6658;53.080;7.428;2024-02-15T14:30:33;3.53;;;3.27;;
13185;SDS011;6658;53.080;7.428;2024-02-15T14:33:18;4.07;;;3.67;;
13185;SDS011;6658;53.080;7.428;2024-02-15T14:35:44;4.07;;;2.50;;
13185;SDS011;6658;53.080;7.428;2024-02-15T14:38:11;3.30;;;2.93;;
13185;SDS011;6658;53.080;7.428;2024-02-15T14:40:39;3.70;;;3.40;;
13185;SDS011;6658;53.080;7.428;2024-02-15T14:43:06;3.13;;;2.90;;
13185;SDS011;6658;53.080;7.428;2024-02-15T14:45:39;3.77;;;3.47;;
13185;SDS011;6658;53.080;7.428;2024-02-15T14:48:08;3.60;;;2.90;;
13185;SDS011;6658;53.080;7.428;2024-02-15T14:50:41;3.00;;;2.70;;
13185;SDS011;6658;53.080;7.428;2024-02-15T14:53:07;3.63;;;3.27;;
13185;SDS011;6658;53.080;7.428;2024-02-15T14:55:34;3.43;;;3.07;;
13185;SDS011;6658;53.080;7.428;2024-02-15T14:58:00;3.63;;;2.90;;
13185;SDS011;6658;53.080;7.428;2024-02-15T15:00:26;3.30;;;3.00;;
13185;SDS011;6658;53.080;7.428;2024-02-15T15:02:52;4.07;;;3.77;;
13185;SDS011;6658;53.080;7.428;2024-02-15T15:05:22;5.47;;;4.17;;
13185;SDS011;6658;53.080;7.428;2024-02-15T15:08:06;6.23;;;5.63;;
13185;SDS011;6658;53.080;7.428;2024-02-15T15:10:51;4.07;;;3.70;;
13185;SDS011;6658;53.080;7.428;2024-02-15T15:13:35;5.43;;;4.53;;
13185;SDS011;6658;53.080;7.428;2024-02-15T15:16:02;5.20;;;4.70;;
13185;SDS011;6658;53.080;7.428;2024-02-15T15:18:29;4.20;;;3.80;;
13185;SDS011;6658;53.080;7.428;2024-02-15T15:20:56;4.37;;;3.97;;
13185;SDS011;6658;53.080;7.428;2024-02-15T15:23:23;3.97;;;3.67;;
13185;SDS011;6658;53.080;7.428;2024-02-15T15:25:50;5.27;;;4.70;;